METAR AND TAF INFORMATION
METAR FOR SGAS
ADDS - METARS form results

(1407 UTC 22 April 2018)
Data provider http://aviationweather.gov/adds/metars/
 
METAR text: SGAS 221400Z 03008KT 330V070 CAVOK 30/22 Q1014
Conditions at: SGAS (ASUNCION/SILVIO , PY) observed 1400 UTC 22 April 2018
Temperature: 30.0°C (86°F)
Dewpoint: 22.0°C (72°F) [RH = 62%]
Pressure (altimeter): 29.94 inches Hg (1014.0 mb)
Winds: from the NNE (30 degrees) at 9 MPH (8 knots; 4.2 m/s)
Visibility: 6 or more miles (10+ km)
Ceiling: ceiling and visibility are OK
Clouds: unknown
Weather: no significant weather observed at this time

METAR text: SGAS 221330Z 02007KT 340V050 CAVOK 29/22 Q1014
Conditions at: SGAS (ASUNCION/SILVIO , PY) observed 1330 UTC 22 April 2018
Temperature: 29.0°C (84°F)
Dewpoint: 22.0°C (72°F) [RH = 66%]
Pressure (altimeter): 29.94 inches Hg (1014.0 mb)
Winds: from the NNE (20 degrees) at 8 MPH (7 knots; 3.6 m/s)
Visibility: 6 or more miles (10+ km)
Ceiling: ceiling and visibility are OK
Clouds: unknown
Weather: no significant weather observed at this time

Forecast for: SGAS (ASUNCION/SILVIO , PY)
Text: TAF SGAS 221040Z 2212/2312 05008KT CAVOK TX34/2219Z TN22/2309Z
Forecast period: 1200 to 1500 UTC 22 April 2018
Forecast type: FROM: standard forecast or significant change
Winds: from the NE (50 degrees) at 9 MPH (8 knots; 4.2 m/s)
Visibility: 6 or more miles (10+ km)
Clouds: not forecast
Weather: no significant weather forecast for this period
Forecast for: SGAS (ASUNCION/SILVIO , PY)
Text: TAF SGAS 221040Z 2212/2312 05008KT CAVOK TX34/2219Z TN22/2309Z
Forecast period: 1200 to 1500 UTC 22 April 2018
Forecast type: FROM: standard forecast or significant change
Winds: from the NE (50 degrees) at 9 MPH (8 knots; 4.2 m/s)
Visibility: 6 or more miles (10+ km)
Clouds: not forecast
Weather: no significant weather forecast for this period
Forecast for: SGAS (ASUNCION/SILVIO , PY)
Text: TAF SGAS 221040Z 2212/2312 05008KT CAVOK TX34/2219Z TN22/2309Z
Forecast period: 1500 to 2200 UTC 22 April 2018
Forecast type: BECOMING: Conditions expected to become as follows by 1800 UTC 22 April 2018
Winds: from the NE (50 degrees) at 9 MPH (8 knots; 4.2 m/s)
Visibility: 6 or more miles (10+ km)
Clouds: scattered clouds at 3000 feet AGL
Weather: no significant weather forecast for this period
Forecast for: SGAS (ASUNCION/SILVIO , PY)
Text: TAF SGAS 221040Z 2212/2312 05008KT CAVOK TX34/2219Z TN22/2309Z
Forecast period: 1500 to 2200 UTC 22 April 2018
Forecast type: BECOMING: Conditions expected to become as follows by 1800 UTC 22 April 2018
Winds: from the NE (50 degrees) at 9 MPH (8 knots; 4.2 m/s)
Visibility: 6 or more miles (10+ km)
Clouds: scattered clouds at 3000 feet AGL
Weather: no significant weather forecast for this period
Forecast for: SGAS (ASUNCION/SILVIO , PY)
Text: TAF SGAS 221040Z 2212/2312 05008KT CAVOK TX34/2219Z TN22/2309Z
Forecast period: 2200 UTC 22 April 2018 to 0200 UTC 23 April 2018
Forecast type: BECOMING: Conditions expected to become as follows by 0100 UTC 23 April 2018
Winds: from the ESE (110 degrees) at 3 MPH (3 knots; 1.6 m/s)
Visibility: 6 miles (9 km)
Weather: no significant weather forecast for this period
Forecast for: SGAS (ASUNCION/SILVIO , PY)
Text: TAF SGAS 221040Z 2212/2312 05008KT CAVOK TX34/2219Z TN22/2309Z
Forecast period: 2200 UTC 22 April 2018 to 0200 UTC 23 April 2018
Forecast type: BECOMING: Conditions expected to become as follows by 0100 UTC 23 April 2018
Winds: from the ESE (110 degrees) at 3 MPH (3 knots; 1.6 m/s)
Visibility: 6 miles (9 km)
Weather: no significant weather forecast for this period
Forecast for: SGAS (ASUNCION/SILVIO , PY)
Text: TAF SGAS 221040Z 2212/2312 05008KT CAVOK TX34/2219Z TN22/2309Z
Forecast period: 0200 to 1200 UTC 23 April 2018
Forecast type: BECOMING: Conditions expected to become as follows by 0500 UTC 23 April 2018
Winds: from the E (80 degrees) at 6 MPH (5 knots; 2.6 m/s)
Visibility: 6 or more miles (10+ km)
Weather: NSW  (no significant weather)
Forecast for: SGAS (ASUNCION/SILVIO , PY)
Text: TAF SGAS 221040Z 2212/2312 05008KT CAVOK TX34/2219Z TN22/2309Z
Forecast period: 0200 to 1200 UTC 23 April 2018
Forecast type: BECOMING: Conditions expected to become as follows by 0500 UTC 23 April 2018
Winds: from the E (80 degrees) at 6 MPH (5 knots; 2.6 m/s)
Visibility: 6 or more miles (10+ km)
Weather: NSW  (no significant weather)

 AIRPORT MAP

 RUNWAY INFORMATION
Runway 02 Runway length 11001 ft Runway width 151 ft
Runway elevation 292 ft Runway displaced threshold 0 ft Runway heading 10
Runway 20 Runway length 11001 ft Runway width 151 ft
Runway elevation 249 ft Runway displaced threshold 0 ft Runway heading 190

 AIRPORT FREQUENCIES
Type APP Name ASUNCION A Frequency 119.7 MHZ
Type CTR Name ASUNCION C Frequency 128.4 MHZ
Type GND Name GND Frequency 121.9 MHZ
Type RDO Name ASUNCION R Frequency 126.9 MHZ
Type RDO Name ASUNCION R Frequency 1002.4 MHZ
Type TWR Name ASUNCION T Frequency 118.1 MHZ

 AIRPORT NEAR NAVIGATION AIDS
Type NDB Name Asuncion Frequency 360 KHZ
Type NDB Name Asuncion Frequency 320 KHZ
Type NDB Name Asuncion Frequency 340 KHZ
Type VOR-DME Name Asuncion Frequency 115900 KHZ
Type NDB Name Asuncion Frequency 305 KHZ



Powered by Virtual Airlines Manager [v2.6.2]